Time;durP1;ratioP1;P1;durP2;ratioP2;P2;SDS_P1;SDS_P2;PMS_P1;PMS_P2;Temp;Humidity;BMP_temperature;BMP_pressure;BME280_temperature;BME280_humidity;BME280_pressure;Samples;Min_cycle;Max_cycle;Signal;HPM_P1;HPM_P2
2024/01/17 00:00:30;;;;;;;9.82;4.32;;;2.30;99.90;;;;;;5081333;28;20214;-52
2024/01/17 00:02:56;;;;;;;10.02;4.70;;;2.30;99.90;;;;;;5082132;28;20186;-50
2024/01/17 00:05:22;;;;;;;9.48;4.35;;;2.30;99.90;;;;;;5081616;28;21211;-52
2024/01/17 00:07:48;;;;;;;10.27;4.75;;;2.20;99.90;;;;;;5082058;28;20557;-50
2024/01/17 00:10:14;;;;;;;9.40;4.45;;;2.20;99.90;;;;;;5081274;28;20216;-47
2024/01/17 00:12:40;;;;;;;8.48;4.50;;;2.20;99.90;;;;;;5081936;28;20276;-50
2024/01/17 00:15:07;;;;;;;10.02;4.30;;;2.10;99.90;;;;;;5081938;28;20370;-48
2024/01/17 00:17:33;;;;;;;8.80;4.90;;;2.10;99.90;;;;;;5080264;28;20277;-47
2024/01/17 00:19:59;;;;;;;9.02;4.18;;;2.00;99.90;;;;;;5080118;28;20824;-48
2024/01/17 00:22:24;;;;;;;12.30;4.50;;;2.00;99.90;;;;;;5081702;28;20190;-51
2024/01/17 00:24:51;;;;;;;7.80;4.05;;;2.00;99.90;;;;;;5081365;28;20265;-45
2024/01/17 00:27:18;;;;;;;9.55;4.43;;;2.00;99.90;;;;;;5081609;28;20194;-49
2024/01/17 00:29:45;;;;;;;10.18;4.43;;;2.00;99.90;;;;;;5079969;28;20185;-54
2024/01/17 00:32:11;;;;;;;10.18;4.55;;;1.90;99.90;;;;;;5081128;28;20196;-50
2024/01/17 00:34:37;;;;;;;8.07;4.70;;;1.90;99.90;;;;;;5079498;28;20197;-46
2024/01/17 00:37:03;;;;;;;11.32;5.30;;;1.90;99.90;;;;;;5080254;28;20555;-46
2024/01/17 00:39:29;;;;;;;7.57;3.95;;;1.90;99.90;;;;;;5081167;28;20275;-45
2024/01/17 00:41:55;;;;;;;11.07;4.43;;;1.80;99.90;;;;;;5080897;28;20189;-49
2024/01/17 00:44:21;;;;;;;11.18;4.65;;;1.80;99.90;;;;;;5081405;28;20194;-51
2024/01/17 00:46:47;;;;;;;11.68;4.75;;;1.90;99.90;;;;;;5080718;28;20334;-46
2024/01/17 00:49:14;;;;;;;10.30;4.95;;;1.90;99.90;;;;;;5081009;28;20190;-46
2024/01/17 00:51:39;;;;;;;7.05;4.53;;;1.90;99.90;;;;;;5080800;28;20209;-47
2024/01/17 00:54:06;;;;;;;11.00;4.90;;;1.90;99.90;;;;;;5079943;28;20571;-42
2024/01/17 00:56:35;;;;;;;9.05;4.28;;;2.00;99.90;;;;;;5080721;28;20239;-46
2024/01/17 00:59:02;;;;;;;11.85;4.30;;;2.00;99.90;;;;;;5079751;28;20218;-50
2024/01/17 01:01:28;;;;;;;8.27;4.45;;;2.00;99.90;;;;;;5080850;28;20607;-53
2024/01/17 01:03:54;;;;;;;7.47;4.00;;;2.00;99.90;;;;;;5079555;28;20301;-50
2024/01/17 01:06:19;;;;;;;9.02;4.60;;;2.10;99.90;;;;;;5081034;28;20254;-48
2024/01/17 01:08:45;;;;;;;9.10;4.47;;;2.10;99.90;;;;;;5079859;28;20598;-52
2024/01/17 01:11:11;;;;;;;10.30;4.78;;;2.10;99.90;;;;;;5079028;28;20219;-45
2024/01/17 01:13:37;;;;;;;9.68;4.70;;;2.10;99.90;;;;;;5081232;28;20185;-47
2024/01/17 01:16:03;;;;;;;8.98;4.45;;;2.10;99.90;;;;;;5080499;28;20186;-46
2024/01/17 01:18:30;;;;;;;10.50;4.03;;;2.10;99.90;;;;;;5080996;28;20193;-51
2024/01/17 01:20:57;;;;;;;8.50;4.68;;;2.10;99.90;;;;;;5080018;28;20222;-51
2024/01/17 01:23:25;;;;;;;9.27;4.72;;;2.10;99.90;;;;;;5080992;28;20264;-51
2024/01/17 01:25:51;;;;;;;9.60;4.57;;;2.20;99.90;;;;;;5080864;28;20197;-48
2024/01/17 01:28:17;;;;;;;12.05;5.00;;;2.10;99.90;;;;;;5080398;28;20189;-44
2024/01/17 01:30:43;;;;;;;7.18;5.22;;;2.10;99.90;;;;;;5080769;28;20273;-45
2024/01/17 01:33:09;;;;;;;9.77;4.47;;;2.20;99.90;;;;;;5080682;28;20300;-51
2024/01/17 01:35:34;;;;;;;9.18;5.38;;;2.20;99.90;;;;;;5080683;28;20578;-51
2024/01/17 01:38:00;;;;;;;13.18;5.72;;;2.20;99.90;;;;;;5080748;28;20224;-53
2024/01/17 01:40:26;;;;;;;9.77;5.45;;;2.10;99.90;;;;;;5078869;28;20198;-51
2024/01/17 01:42:53;;;;;;;12.10;5.50;;;2.20;99.90;;;;;;5084716;28;20300;-44
2024/01/17 01:45:19;;;;;;;12.57;6.10;;;2.20;99.90;;;;;;5084477;28;20625;-51
2024/01/17 01:47:45;;;;;;;12.57;5.80;;;2.10;99.90;;;;;;5084130;28;20189;-51
2024/01/17 01:50:11;;;;;;;11.07;6.30;;;2.20;99.90;;;;;;5084507;28;20181;-44
2024/01/17 01:52:39;;;;;;;14.00;5.93;;;2.20;99.90;;;;;;5084179;28;20603;-46
2024/01/17 01:55:07;;;;;;;11.88;6.50;;;2.20;99.90;;;;;;5084801;28;20194;-48
2024/01/17 01:57:36;;;;;;;13.63;6.75;;;2.20;99.90;;;;;;5084514;28;21328;-50
2024/01/17 02:00:04;;;;;;;11.35;6.78;;;2.20;99.90;;;;;;5083709;28;20209;-43
2024/01/17 02:02:39;;;;;;;13.73;6.78;;;2.20;99.90;;;;;;5084027;28;20194;-43
2024/01/17 02:05:05;;;;;;;17.65;7.28;;;2.20;99.90;;;;;;5083942;28;21230;-50
2024/01/17 02:07:33;;;;;;;13.57;7.10;;;2.20;99.90;;;;;;5083691;28;20198;-49
2024/01/17 02:10:01;;;;;;;15.73;7.18;;;2.30;99.90;;;;;;5083714;28;20247;-51
2024/01/17 02:12:27;;;;;;;15.25;7.25;;;2.30;99.90;;;;;;5084202;28;20204;-47
2024/01/17 02:14:53;;;;;;;13.82;7.70;;;2.30;99.90;;;;;;5081794;28;20243;-52
2024/01/17 02:17:19;;;;;;;14.25;7.40;;;2.30;99.90;;;;;;5083840;28;20194;-53
2024/01/17 02:19:45;;;;;;;13.50;7.40;;;2.20;99.90;;;;;;5081414;28;20237;-47
2024/01/17 02:22:11;;;;;;;12.68;7.30;;;2.20;99.90;;;;;;5083976;28;20189;-45
2024/01/17 02:24:37;;;;;;;11.93;7.75;;;2.20;99.90;;;;;;5082869;28;20193;-49
2024/01/17 02:27:03;;;;;;;16.00;8.07;;;2.20;99.90;;;;;;5083315;28;20327;-53
2024/01/17 02:29:30;;;;;;;13.15;7.28;;;2.20;99.90;;;;;;5082119;28;20185;-50
2024/01/17 02:31:56;;;;;;;16.10;8.30;;;2.20;99.90;;;;;;5083566;28;20193;-47
2024/01/17 02:34:22;;;;;;;11.20;7.68;;;2.10;99.90;;;;;;5083786;28;20230;-50
2024/01/17 02:36:48;;;;;;;16.38;7.93;;;2.20;99.90;;;;;;5083221;28;20194;-45
2024/01/17 02:39:15;;;;;;;14.45;8.13;;;2.10;99.90;;;;;;5081791;28;20206;-48
2024/01/17 02:41:43;;;;;;;16.35;7.72;;;2.20;99.90;;;;;;5083431;28;20182;-46
2024/01/17 02:44:09;;;;;;;12.60;7.70;;;2.10;99.90;;;;;;5083163;28;20247;-50
2024/01/17 02:46:35;;;;;;;14.05;8.18;;;2.20;99.90;;;;;;5081701;28;20194;-50
2024/01/17 02:49:00;;;;;;;15.80;7.88;;;2.10;99.90;;;;;;5083774;28;20272;-47
2024/01/17 02:51:27;;;;;;;17.73;8.93;;;2.10;99.90;;;;;;5081587;28;20189;-45
2024/01/17 02:53:52;;;;;;;17.60;8.65;;;2.10;99.90;;;;;;5083303;28;21303;-49
2024/01/17 02:56:19;;;;;;;16.70;8.68;;;2.20;99.90;;;;;;5081493;28;20182;-47
2024/01/17 02:58:45;;;;;;;13.65;8.60;;;2.20;99.90;;;;;;5082450;28;20268;-50
2024/01/17 03:01:14;;;;;;;16.17;8.95;;;2.10;99.90;;;;;;5081803;28;20206;-51
2024/01/17 03:03:40;;;;;;;16.70;8.75;;;2.20;99.90;;;;;;5082976;28;20257;-50
2024/01/17 03:06:06;;;;;;;17.92;9.35;;;2.10;99.90;;;;;;5081740;28;20182;-49
2024/01/17 03:08:32;;;;;;;20.00;9.15;;;2.10;99.90;;;;;;5081460;28;20200;-46
2024/01/17 03:10:58;;;;;;;16.23;9.43;;;2.10;99.90;;;;;;5083082;28;20194;-48
2024/01/17 03:13:24;;;;;;;14.23;8.85;;;2.10;99.90;;;;;;5082860;28;20194;-48
2024/01/17 03:15:50;;;;;;;16.83;8.85;;;2.10;99.90;;;;;;5081801;28;20194;-49
2024/01/17 03:18:16;;;;;;;14.27;8.98;;;2.00;99.90;;;;;;5082694;28;20274;-46
2024/01/17 03:20:42;;;;;;;16.38;9.63;;;2.00;99.90;;;;;;5082641;28;21163;-45
2024/01/17 03:23:08;;;;;;;15.07;9.25;;;2.00;99.90;;;;;;5080695;28;20198;-45
2024/01/17 03:25:34;;;;;;;15.45;9.95;;;2.00;99.90;;;;;;5082586;28;20189;-49
2024/01/17 03:28:00;;;;;;;19.15;9.95;;;1.90;99.90;;;;;;5082487;28;20186;-53
2024/01/17 03:30:26;;;;;;;17.90;10.32;;;1.90;99.90;;;;;;5082597;28;20198;-48
2024/01/17 03:32:51;;;;;;;16.83;9.52;;;1.90;99.90;;;;;;5082182;28;21085;-48
2024/01/17 03:35:17;;;;;;;19.88;9.88;;;1.90;99.90;;;;;;5082714;28;20776;-46
2024/01/17 03:37:43;;;;;;;16.77;9.48;;;1.90;99.90;;;;;;5080551;28;20226;-51
2024/01/17 03:40:10;;;;;;;19.60;9.93;;;1.90;99.90;;;;;;5080996;28;20284;-47
2024/01/17 03:42:36;;;;;;;18.85;9.55;;;1.80;99.90;;;;;;5082383;28;20182;-46
2024/01/17 03:45:01;;;;;;;18.80;9.77;;;1.90;99.90;;;;;;5082293;28;20193;-52
2024/01/17 03:47:27;;;;;;;17.55;10.02;;;1.80;99.90;;;;;;5080888;28;20190;-44
2024/01/17 03:49:53;;;;;;;18.40;10.02;;;1.80;99.90;;;;;;5081481;28;20178;-49
2024/01/17 03:52:20;;;;;;;19.40;9.75;;;1.80;99.90;;;;;;5081765;28;20698;-45
2024/01/17 03:54:46;;;;;;;18.17;10.45;;;1.80;99.90;;;;;;5082156;28;21005;-45
2024/01/17 03:57:11;;;;;;;21.45;10.70;;;1.80;99.90;;;;;;5079617;28;20186;-46
2024/01/17 03:59:42;;;;;;;20.30;10.60;;;1.80;99.90;;;;;;5081443;28;20210;-47
2024/01/17 04:02:07;;;;;;;22.00;10.68;;;1.80;99.90;;;;;;5081445;28;20698;-44
2024/01/17 04:04:33;;;;;;;21.45;10.77;;;1.80;99.90;;;;;;5081382;28;20185;-47
2024/01/17 04:06:59;;;;;;;18.08;9.85;;;1.80;99.90;;;;;;5081487;28;20189;-49
2024/01/17 04:09:25;;;;;;;18.80;11.32;;;1.70;99.90;;;;;;5080352;28;20621;-47
2024/01/17 04:11:52;;;;;;;23.48;11.20;;;1.70;99.90;;;;;;5081428;28;20409;-47
2024/01/17 04:14:17;;;;;;;20.05;10.95;;;1.70;99.90;;;;;;5080283;28;20234;-47
2024/01/17 04:16:43;;;;;;;21.95;11.23;;;1.60;99.90;;;;;;5063571;28;20189;-50
2024/01/17 04:19:09;;;;;;;23.98;12.02;;;1.60;99.90;;;;;;5081187;28;20210;-47
2024/01/17 04:21:36;;;;;;;21.05;10.88;;;1.60;99.90;;;;;;5081106;28;20189;-50
2024/01/17 04:24:02;;;;;;;20.73;11.07;;;1.50;99.90;;;;;;5081489;28;20193;-48
2024/01/17 04:26:28;;;;;;;22.02;11.73;;;1.50;99.90;;;;;;5081675;28;20892;-49
2024/01/17 04:28:54;;;;;;;19.25;11.73;;;1.50;99.90;;;;;;5080048;28;20216;-49
2024/01/17 04:31:25;;;;;;;19.60;11.35;;;1.40;99.90;;;;;;5081364;28;20228;-50
2024/01/17 04:33:51;;;;;;;19.55;11.68;;;1.40;99.90;;;;;;5081268;28;20895;-52
2024/01/17 04:36:18;;;;;;;21.23;11.98;;;1.40;99.90;;;;;;5080126;28;20205;-47
2024/01/17 04:38:44;;;;;;;23.35;12.27;;;1.40;99.90;;;;;;5081564;28;20617;-49
2024/01/17 04:41:15;;;;;;;20.60;12.27;;;1.40;99.90;;;;;;5081155;28;20224;-43
2024/01/17 04:43:44;;;;;;;18.63;11.95;;;1.40;99.90;;;;;;5081223;28;20271;-49
2024/01/17 04:46:13;;;;;;;23.55;12.35;;;1.40;99.90;;;;;;5081216;28;20251;-49
2024/01/17 04:48:39;;;;;;;24.95;12.07;;;1.40;99.90;;;;;;5079806;28;20216;-49
2024/01/17 04:51:06;;;;;;;24.85;12.73;;;1.40;99.90;;;;;;5081041;28;20286;-44
2024/01/17 04:53:33;;;;;;;22.08;12.80;;;1.40;99.90;;;;;;5079233;28;20209;-45
2024/01/17 04:55:59;;;;;;;20.20;12.35;;;1.40;99.90;;;;;;5079945;28;20200;-43
2024/01/17 04:58:26;;;;;;;22.40;12.85;;;1.30;99.90;;;;;;5080947;28;20206;-50
2024/01/17 05:00:53;;;;;;;19.48;11.10;;;1.30;99.90;;;;;;5079256;28;20213;-47
2024/01/17 05:03:19;;;;;;;20.33;12.13;;;1.40;99.90;;;;;;5080701;28;20182;-45
2024/01/17 05:05:45;;;;;;;21.73;12.02;;;1.40;99.90;;;;;;5080717;28;20185;-47
2024/01/17 05:08:12;;;;;;;22.75;12.30;;;1.30;99.90;;;;;;5080512;28;20354;-48
2024/01/17 05:10:43;;;;;;;27.05;13.55;;;1.30;99.90;;;;;;5079734;28;20283;-44
2024/01/17 05:13:08;;;;;;;21.38;12.20;;;1.30;99.90;;;;;;5079716;28;20563;-47
2024/01/17 05:15:34;;;;;;;23.40;13.05;;;1.30;99.90;;;;;;5080419;28;20182;-53
2024/01/17 05:18:00;;;;;;;20.92;12.55;;;1.30;99.90;;;;;;5080008;28;20198;-47
2024/01/17 05:20:26;;;;;;;21.35;12.15;;;1.20;99.90;;;;;;5080566;28;20693;-45
2024/01/17 05:22:52;;;;;;;24.33;13.07;;;1.20;99.90;;;;;;5079996;28;20217;-49
2024/01/17 05:25:18;;;;;;;20.20;12.30;;;1.20;99.90;;;;;;5079280;28;20231;-47
2024/01/17 05:27:51;;;;;;;22.98;12.75;;;1.20;99.90;;;;;;5080502;28;20281;-45
2024/01/17 05:30:21;;;;;;;23.05;12.60;;;1.20;99.90;;;;;;5080707;28;20217;-50
2024/01/17 05:32:47;;;;;;;24.25;13.55;;;1.20;99.90;;;;;;5080544;28;20194;-50
2024/01/17 05:35:16;;;;;;;21.25;12.20;;;1.20;99.90;;;;;;5079264;28;20193;-47
2024/01/17 05:37:43;;;;;;;22.30;13.15;;;1.20;99.90;;;;;;5080593;28;20311;-44
2024/01/17 05:40:10;;;;;;;20.27;12.02;;;1.30;99.90;;;;;;5080792;28;20721;-47
2024/01/17 05:42:37;;;;;;;22.58;13.63;;;1.20;99.90;;;;;;5080987;28;20192;-48
2024/01/17 05:45:04;;;;;;;22.08;13.07;;;1.30;99.90;;;;;;5080501;28;20189;-46
2024/01/17 05:47:30;;;;;;;18.38;11.80;;;1.20;99.90;;;;;;5080053;28;20194;-44
2024/01/17 05:49:57;;;;;;;22.35;13.02;;;1.30;99.90;;;;;;5061965;28;20186;-47
2024/01/17 05:52:23;;;;;;;24.73;13.18;;;1.20;99.90;;;;;;5079136;28;20212;-50
2024/01/17 05:54:49;;;;;;;26.13;13.13;;;1.20;99.90;;;;;;5080547;28;20186;-48
2024/01/17 05:57:15;;;;;;;20.60;13.15;;;1.20;99.90;;;;;;5080210;28;20189;-50
2024/01/17 05:59:42;;;;;;;20.80;13.00;;;1.20;99.90;;;;;;5078515;28;20579;-45
2024/01/17 06:02:08;;;;;;;19.10;12.40;;;1.10;99.90;;;;;;5078377;28;20208;-46
2024/01/17 06:04:34;;;;;;;23.98;13.20;;;1.10;99.90;;;;;;5080343;28;20174;-50
2024/01/17 06:07:00;;;;;;;22.65;12.57;;;1.10;99.90;;;;;;5079496;28;20243;-49
2024/01/17 06:09:26;;;;;;;19.45;11.48;;;1.00;99.90;;;;;;5079802;28;20186;-44
2024/01/17 06:11:52;;;;;;;23.67;14.57;;;1.00;99.90;;;;;;5078636;28;20435;-50
2024/01/17 06:14:18;;;;;;;20.90;14.20;;;1.00;99.90;;;;;;5079885;28;20647;-46
2024/01/17 06:16:44;;;;;;;22.05;13.10;;;1.00;99.90;;;;;;5078588;28;20189;-47
2024/01/17 06:19:10;;;;;;;20.27;12.50;;;0.90;99.90;;;;;;5095192;28;20196;-51
2024/01/17 06:21:36;;;;;;;20.60;12.18;;;0.90;99.90;;;;;;5079098;28;20631;-45
2024/01/17 06:24:02;;;;;;;20.30;13.25;;;0.90;99.90;;;;;;5079707;28;20199;-51
2024/01/17 06:26:28;;;;;;;19.02;12.52;;;0.90;99.90;;;;;;5045090;28;20182;-45
2024/01/17 06:28:54;;;;;;;19.38;12.45;;;0.80;99.90;;;;;;5049131;28;20533;-48
2024/01/17 06:31:25;;;;;;;22.92;12.43;;;0.80;99.90;;;;;;5051486;28;20186;-52
2024/01/17 06:33:54;;;;;;;20.60;12.32;;;0.80;99.90;;;;;;5083382;28;20197;-53
2024/01/17 06:36:21;;;;;;;21.05;11.35;;;0.80;99.90;;;;;;5084119;28;20193;-53
2024/01/17 06:38:46;;;;;;;22.45;12.63;;;0.80;99.90;;;;;;5082706;28;20257;-52
2024/01/17 06:41:12;;;;;;;23.98;12.93;;;0.80;99.90;;;;;;5083444;28;20326;-48
2024/01/17 06:43:38;;;;;;;21.70;12.00;;;0.80;99.90;;;;;;5083504;28;20200;-46
2024/01/17 06:46:04;;;;;;;22.25;11.95;;;0.80;99.90;;;;;;5081805;28;20182;-47
2024/01/17 06:48:31;;;;;;;22.25;12.50;;;0.80;99.90;;;;;;5083004;28;20581;-48
2024/01/17 06:50:57;;;;;;;18.98;11.50;;;0.80;99.90;;;;;;5083075;28;20208;-46
2024/01/17 06:53:23;;;;;;;21.48;12.38;;;0.80;99.90;;;;;;5083365;28;20221;-53
2024/01/17 06:55:49;;;;;;;21.25;12.18;;;0.70;99.90;;;;;;5082160;28;20539;-51
2024/01/17 06:58:15;;;;;;;24.15;12.88;;;0.70;99.90;;;;;;5064434;28;21107;-48
2024/01/17 07:00:42;;;;;;;19.38;11.90;;;0.80;99.90;;;;;;5081878;28;20221;-49
2024/01/17 07:03:08;;;;;;;21.25;12.02;;;0.70;99.90;;;;;;5081808;28;20197;-50
2024/01/17 07:05:34;;;;;;;21.67;11.20;;;0.80;99.90;;;;;;5064781;28;20190;-49
2024/01/17 07:07:59;;;;;;;19.83;12.10;;;0.80;99.90;;;;;;5063932;28;20198;-49
2024/01/17 07:10:25;;;;;;;21.98;12.30;;;0.80;99.90;;;;;;5081122;28;20232;-47
2024/01/17 07:12:51;;;;;;;22.05;12.45;;;0.80;99.90;;;;;;5082668;28;20661;-52
2024/01/17 07:15:17;;;;;;;22.33;12.63;;;0.80;99.90;;;;;;5082494;28;20196;-48
2024/01/17 07:17:43;;;;;;;22.70;11.68;;;0.80;99.90;;;;;;5082662;28;20281;-46
2024/01/17 07:20:10;;;;;;;19.13;11.63;;;0.80;99.90;;;;;;5081527;28;20257;-50
2024/01/17 07:22:44;;;;;;;19.92;12.48;;;0.80;99.90;;;;;;5081491;28;20738;-50
2024/01/17 07:25:16;;;;;;;21.13;11.48;;;0.80;99.90;;;;;;5082145;28;20194;-46
2024/01/17 07:27:45;;;;;;;25.77;12.43;;;0.80;99.90;;;;;;5080631;28;20658;-46
2024/01/17 07:30:12;;;;;;;22.23;11.77;;;0.70;99.90;;;;;;5082216;28;20552;-50
2024/01/17 07:32:38;;;;;;;20.70;12.35;;;0.70;99.90;;;;;;5080152;28;20241;-49
2024/01/17 07:35:05;;;;;;;18.92;12.35;;;0.70;99.90;;;;;;5082373;28;20185;-49
2024/01/17 07:37:31;;;;;;;19.98;11.93;;;0.70;99.90;;;;;;5081851;28;20189;-53
2024/01/17 07:39:58;;;;;;;18.90;11.38;;;0.70;99.90;;;;;;5082798;28;20676;-46
2024/01/17 07:42:24;;;;;;;20.92;11.52;;;0.70;99.90;;;;;;5063693;28;20250;-50
2024/01/17 07:44:50;;;;;;;21.92;11.88;;;0.70;99.90;;;;;;5081716;28;20186;-55
2024/01/17 07:47:16;;;;;;;17.48;11.60;;;0.70;99.90;;;;;;5080656;28;20178;-51
2024/01/17 07:49:44;;;;;;;19.90;12.45;;;0.70;99.90;;;;;;5079505;28;20941;-45
2024/01/17 07:52:10;;;;;;;25.05;11.75;;;0.70;99.90;;;;;;5081378;28;20272;-52
2024/01/17 07:54:36;;;;;;;19.95;11.52;;;0.70;99.90;;;;;;5081550;28;20219;-50
2024/01/17 07:57:03;;;;;;;19.42;11.77;;;0.70;99.90;;;;;;5081436;28;20481;-47
2024/01/17 07:59:29;;;;;;;21.80;11.60;;;0.70;99.90;;;;;;5080878;28;20217;-49
2024/01/17 08:01:55;;;;;;;20.48;12.05;;;0.70;99.90;;;;;;5080428;28;20196;-51
2024/01/17 08:04:21;;;;;;;21.38;12.07;;;0.60;99.90;;;;;;5081868;28;20204;-43
2024/01/17 08:06:48;;;;;;;22.60;12.43;;;0.60;99.90;;;;;;5080068;28;20599;-44
2024/01/17 08:09:26;;;;;;;19.02;11.82;;;0.60;99.90;;;;;;5080698;28;20178;-48
2024/01/17 08:11:54;;;;;;;19.77;11.85;;;0.60;99.90;;;;;;5081046;28;20213;-47
2024/01/17 08:14:21;;;;;;;17.65;11.77;;;0.60;99.90;;;;;;5079455;28;20181;-46
2024/01/17 08:16:48;;;;;;;18.50;12.65;;;0.60;99.90;;;;;;5079508;28;20185;-46
2024/01/17 08:19:14;;;;;;;21.42;12.30;;;0.60;99.90;;;;;;5080083;28;20288;-49
2024/01/17 08:21:46;;;;;;;19.30;11.75;;;0.60;99.90;;;;;;5081511;28;20221;-47
2024/01/17 08:24:13;;;;;;;23.90;12.52;;;0.60;99.90;;;;;;5080950;28;20194;-46
2024/01/17 08:26:40;;;;;;;22.33;13.10;;;0.60;99.90;;;;;;5030422;28;20263;-48
2024/01/17 08:29:06;;;;;;;19.05;11.65;;;0.60;99.90;;;;;;5081278;28;20358;-50
2024/01/17 08:31:32;;;;;;;23.90;12.52;;;0.60;99.90;;;;;;5079255;28;20208;-48
2024/01/17 08:33:58;;;;;;;23.02;11.95;;;0.60;99.90;;;;;;5079962;28;20189;-50
2024/01/17 08:36:29;;;;;;;22.50;12.23;;;0.60;99.90;;;;;;5081223;28;20186;-47
2024/01/17 08:38:55;;;;;;;21.33;12.23;;;0.60;99.90;;;;;;5081133;28;20194;-50
2024/01/17 08:41:21;;;;;;;19.73;11.80;;;0.70;99.90;;;;;;5080731;28;20241;-45
2024/01/17 08:43:47;;;;;;;26.80;12.98;;;0.70;99.90;;;;;;5081049;28;20217;-44
2024/01/17 08:46:14;;;;;;;23.90;13.55;;;0.70;99.90;;;;;;5080701;28;20277;-45
2024/01/17 08:48:41;;;;;;;23.40;13.82;;;0.70;99.90;;;;;;5080956;28;20204;-49
2024/01/17 08:51:09;;;;;;;21.35;11.20;;;0.70;99.90;;;;;;5078841;28;20236;-44
2024/01/17 08:53:35;;;;;;;21.33;11.65;;;0.70;99.90;;;;;;5080586;28;20254;-52
2024/01/17 08:56:04;;;;;;;27.48;14.40;;;0.70;99.90;;;;;;5079225;28;20226;-46
2024/01/17 08:58:31;;;;;;;24.52;11.88;;;0.70;99.90;;;;;;5079830;28;20190;-47
2024/01/17 09:00:57;;;;;;;19.83;11.50;;;0.80;99.90;;;;;;5079791;28;20210;-47
2024/01/17 09:03:24;;;;;;;24.00;11.93;;;0.90;99.90;;;;;;5079000;28;20189;-47
2024/01/17 09:05:50;;;;;;;22.73;12.30;;;1.00;99.90;;;;;;5079308;28;20189;-47
2024/01/17 09:08:16;;;;;;;20.35;11.73;;;1.00;99.90;;;;;;5078638;28;20182;-48
2024/01/17 09:10:42;;;;;;;21.27;11.45;;;1.10;99.90;;;;;;5078596;28;20541;-47
2024/01/17 09:13:09;;;;;;;18.63;10.88;;;1.20;99.90;;;;;;5078607;28;20560;-46
2024/01/17 09:15:35;;;;;;;18.80;11.27;;;1.20;99.90;;;;;;5079275;28;20965;-50
2024/01/17 09:18:01;;;;;;;18.35;11.50;;;1.30;99.90;;;;;;5080444;28;20671;-48
2024/01/17 09:20:27;;;;;;;16.85;10.43;;;1.30;99.90;;;;;;5080232;28;20218;-47
2024/01/17 09:22:53;;;;;;;21.95;10.63;;;1.40;99.90;;;;;;5045767;28;20189;-44
2024/01/17 09:25:19;;;;;;;18.08;9.93;;;1.40;99.90;;;;;;5080468;28;20190;-45
2024/01/17 09:27:45;;;;;;;16.05;10.38;;;1.50;99.90;;;;;;5080530;28;20224;-50
2024/01/17 09:30:11;;;;;;;14.88;10.35;;;1.50;99.90;;;;;;5080226;28;20181;-47
2024/01/17 09:32:37;;;;;;;19.85;10.18;;;1.60;99.90;;;;;;5079934;28;20209;-45
2024/01/17 09:35:04;;;;;;;17.42;10.38;;;1.60;99.90;;;;;;5078401;28;20212;-44
2024/01/17 09:37:30;;;;;;;17.35;10.20;;;1.60;99.90;;;;;;5079381;28;20185;-43
2024/01/17 09:39:56;;;;;;;18.48;10.35;;;1.70;99.90;;;;;;5079964;28;20234;-47
2024/01/17 09:42:23;;;;;;;15.55;9.68;;;1.70;99.90;;;;;;5079169;28;20377;-52
2024/01/17 09:44:49;;;;;;;20.00;9.75;;;1.80;99.90;;;;;;5079845;28;20677;-48
2024/01/17 09:47:19;;;;;;;17.45;9.80;;;1.80;99.90;;;;;;5080158;28;20190;-44
2024/01/17 09:49:45;;;;;;;20.02;10.05;;;1.90;99.90;;;;;;5080538;28;20194;-48
2024/01/17 09:52:14;;;;;;;17.90;10.52;;;1.90;99.90;;;;;;5079679;28;20190;-45
2024/01/17 09:54:46;;;;;;;15.70;9.98;;;1.90;99.90;;;;;;5078549;28;20291;-51
2024/01/17 09:57:20;;;;;;;16.63;10.23;;;1.90;99.90;;;;;;5079757;28;20193;-48
2024/01/17 09:59:50;;;;;;;16.58;10.00;;;2.00;99.90;;;;;;5079687;28;20869;-44
2024/01/17 10:02:18;;;;;;;16.70;9.88;;;2.00;99.90;;;;;;5081384;28;20251;-49
2024/01/17 10:04:47;;;;;;;20.25;9.60;;;2.00;99.90;;;;;;5082449;28;20190;-47
2024/01/17 10:07:13;;;;;;;15.70;9.52;;;2.00;99.90;;;;;;5083921;28;20556;-46
2024/01/17 10:09:40;;;;;;;15.68;9.55;;;2.10;99.90;;;;;;5084166;28;20205;-46
2024/01/17 10:12:07;;;;;;;18.38;9.90;;;2.10;99.90;;;;;;5084384;28;20264;-47
2024/01/17 10:14:33;;;;;;;22.02;10.57;;;2.10;99.90;;;;;;5082815;28;20217;-55
2024/01/17 10:16:59;;;;;;;14.48;9.60;;;2.20;99.90;;;;;;5083940;28;20186;-43
2024/01/17 10:19:25;;;;;;;15.73;9.80;;;2.20;99.90;;;;;;5082894;28;20579;-46
2024/01/17 10:21:51;;;;;;;22.10;10.18;;;2.30;99.90;;;;;;5083295;28;20186;-48
2024/01/17 10:24:17;;;;;;;18.13;9.60;;;2.30;99.90;;;;;;5083487;28;20251;-47
2024/01/17 10:26:44;;;;;;;17.33;10.15;;;2.30;99.90;;;;;;5082046;28;20720;-47
2024/01/17 10:29:13;;;;;;;20.10;9.88;;;2.40;99.90;;;;;;5083024;28;20242;-48
2024/01/17 10:31:40;;;;;;;22.48;11.48;;;2.40;99.90;;;;;;5083999;28;22036;-53
2024/01/17 10:34:07;;;;;;;19.27;11.25;;;2.40;99.90;;;;;;5079377;28;20184;-50
2024/01/17 10:36:34;;;;;;;20.33;10.63;;;2.40;99.90;;;;;;5080856;28;20661;-47
2024/01/17 10:39:03;;;;;;;19.35;10.48;;;2.50;99.90;;;;;;5078993;28;20182;-47
2024/01/17 10:41:29;;;;;;;19.67;10.27;;;2.50;99.90;;;;;;5098386;28;20280;-51
2024/01/17 10:43:57;;;;;;;16.15;9.63;;;2.50;99.90;;;;;;5083056;28;20273;-45
2024/01/17 10:46:23;;;;;;;20.75;9.90;;;2.50;99.90;;;;;;5083580;28;20197;-52
2024/01/17 10:48:50;;;;;;;15.07;9.02;;;2.50;99.90;;;;;;5083534;28;20193;-45
2024/01/17 10:51:23;;;;;;;21.48;10.52;;;2.60;99.90;;;;;;5083535;28;20185;-49
2024/01/17 10:53:52;;;;;;;18.33;9.82;;;2.60;99.90;;;;;;5083399;28;20284;-43
2024/01/17 10:56:19;;;;;;;20.67;9.75;;;2.70;99.90;;;;;;5082947;28;20265;-43
2024/01/17 10:58:50;;;;;;;15.68;9.20;;;2.80;99.90;;;;;;5082436;28;20198;-47
2024/01/17 11:01:24;;;;;;;17.13;9.38;;;2.80;99.90;;;;;;5082956;28;20304;-46
2024/01/17 11:03:56;;;;;;;18.95;9.27;;;2.90;99.90;;;;;;5083168;28;20182;-51
2024/01/17 11:06:23;;;;;;;18.20;9.00;;;2.90;99.90;;;;;;5081371;28;20759;-50
2024/01/17 11:08:51;;;;;;;16.30;9.18;;;3.00;99.90;;;;;;5083046;28;20567;-48
2024/01/17 11:11:18;;;;;;;14.45;8.65;;;3.00;99.90;;;;;;5082488;28;20190;-50
2024/01/17 11:13:46;;;;;;;19.35;8.73;;;3.00;99.90;;;;;;5082636;28;20275;-46
2024/01/17 11:16:15;;;;;;;16.45;9.32;;;3.00;99.90;;;;;;5082348;28;21028;-49
2024/01/17 11:18:42;;;;;;;18.95;9.85;;;3.00;99.90;;;;;;5082395;28;20194;-49
2024/01/17 11:21:08;;;;;;;13.77;8.63;;;3.00;99.90;;;;;;5082572;28;20229;-45
2024/01/17 11:23:47;;;;;;;16.95;9.65;;;3.10;99.90;;;;;;5082453;28;20277;-49
2024/01/17 11:26:23;;;;;;;17.30;8.73;;;3.10;99.90;;;;;;5082783;28;20284;-52
2024/01/17 11:29:01;;;;;;;16.48;8.57;;;3.10;99.90;;;;;;5081591;28;20181;-47
2024/01/17 11:31:45;;;;;;;19.02;9.13;;;3.10;99.90;;;;;;5082293;28;20194;-48
2024/01/17 11:34:12;;;;;;;15.27;8.70;;;3.00;99.90;;;;;;5082234;28;20744;-52
2024/01/17 11:36:46;;;;;;;18.30;9.30;;;3.00;99.90;;;;;;5082483;28;20185;-44
2024/01/17 11:39:17;;;;;;;15.63;8.23;;;2.90;99.90;;;;;;5082335;28;20205;-49
2024/01/17 11:41:45;;;;;;;16.05;9.10;;;2.90;99.90;;;;;;5082350;28;20194;-49
2024/01/17 11:44:12;;;;;;;17.92;10.20;;;2.90;99.90;;;;;;5062491;28;20392;-44
2024/01/17 11:46:39;;;;;;;16.05;8.77;;;2.80;99.90;;;;;;5081721;28;20954;-49
2024/01/17 11:49:08;;;;;;;15.40;8.68;;;2.80;99.90;;;;;;5080886;28;20197;-46
2024/01/17 11:51:37;;;;;;;15.02;8.23;;;2.80;99.90;;;;;;5082390;28;20198;-46
2024/01/17 11:54:09;;;;;;;14.32;8.30;;;2.70;99.90;;;;;;5081974;28;20209;-52
2024/01/17 11:56:35;;;;;;;13.02;8.40;;;2.70;99.90;;;;;;5081763;28;20555;-46
2024/01/17 11:59:05;;;;;;;21.27;9.10;;;2.60;99.90;;;;;;5081898;28;20186;-51
2024/01/17 12:01:31;;;;;;;12.95;8.80;;;2.60;99.90;;;;;;5081983;28;20205;-49
2024/01/17 12:03:57;;;;;;;16.02;9.23;;;2.50;99.90;;;;;;5081905;28;20198;-50
2024/01/17 12:06:23;;;;;;;16.95;9.05;;;2.40;99.90;;;;;;5081082;28;20234;-47
2024/01/17 12:08:52;;;;;;;17.70;9.15;;;2.40;99.90;;;;;;5080326;28;20198;-47
2024/01/17 12:11:19;;;;;;;15.63;8.80;;;2.40;99.90;;;;;;5081702;28;20194;-50
2024/01/17 12:13:47;;;;;;;16.05;9.30;;;2.40;99.90;;;;;;5081703;28;21373;-50
2024/01/17 12:16:15;;;;;;;15.30;9.38;;;2.40;99.90;;;;;;5081280;28;20209;-46
2024/01/17 12:18:41;;;;;;;16.23;9.38;;;2.50;99.90;;;;;;5081662;28;20273;-47
2024/01/17 12:21:07;;;;;;;14.95;9.40;;;2.50;99.90;;;;;;5081072;28;20222;-48
2024/01/17 12:23:35;;;;;;;14.35;9.13;;;2.50;99.90;;;;;;5082119;28;20199;-49
2024/01/17 12:26:01;;;;;;;23.17;10.63;;;2.60;99.90;;;;;;5080812;28;20224;-46
2024/01/17 12:28:28;;;;;;;18.17;10.20;;;2.60;99.90;;;;;;5081531;28;20193;-53
2024/01/17 12:30:54;;;;;;;18.15;9.55;;;2.70;99.90;;;;;;5081139;28;20277;-49
2024/01/17 12:33:20;;;;;;;17.63;10.20;;;2.70;99.90;;;;;;5081089;28;20281;-48
2024/01/17 12:35:46;;;;;;;18.95;9.95;;;2.70;99.90;;;;;;5081584;28;20224;-49
2024/01/17 12:38:12;;;;;;;17.05;9.23;;;2.80;99.90;;;;;;5081104;28;20188;-48
2024/01/17 12:40:38;;;;;;;17.35;9.77;;;2.70;99.90;;;;;;5080514;28;20212;-42